Time;durP1;ratioP1;P1;durP2;ratioP2;P2;SDS_P1;SDS_P2;PMS_P1;PMS_P2;Temp;Humidity;BMP_temperature;BMP_pressure;BME280_temperature;BME280_humidity;BME280_pressure;Samples;Min_cycle;Max_cycle;Signal;HPM_P1;HPM_P2
2022/12/06 00:00:41;;;;;;;125.30;20.73;;;8.90;94.90;;;;;;5109013;28;20027;-56
2022/12/06 00:03:06;;;;;;;109.28;21.65;;;8.90;94.90;;;;;;5126661;28;20364;-56
2022/12/06 00:05:32;;;;;;;103.45;22.45;;;8.90;94.80;;;;;;5127406;28;20024;-56
2022/12/06 00:07:57;;;;;;;120.63;21.40;;;8.90;94.80;;;;;;5091716;28;20032;-56
2022/12/06 00:10:24;;;;;;;110.75;21.10;;;8.90;94.80;;;;;;5108566;28;20023;-56
2022/12/06 00:12:49;;;;;;;115.65;22.50;;;8.90;94.90;;;;;;5126992;28;20020;-56
2022/12/06 00:15:15;;;;;;;124.13;22.23;;;8.90;94.90;;;;;;5108379;28;20049;-56
2022/12/06 00:17:40;;;;;;;107.05;23.00;;;8.80;94.90;;;;;;5108728;28;20114;-56
2022/12/06 00:20:06;;;;;;;110.80;22.42;;;8.80;94.90;;;;;;5091639;28;20031;-56
2022/12/06 00:22:32;;;;;;;110.82;21.58;;;8.80;94.80;;;;;;5108405;28;20024;-56
2022/12/06 00:24:57;;;;;;;110.57;22.80;;;8.80;94.80;;;;;;5091946;28;20028;-56
2022/12/06 00:27:23;;;;;;;97.20;21.98;;;8.80;94.80;;;;;;5126946;28;20029;-56
2022/12/06 00:29:48;;;;;;;77.40;20.05;;;8.80;94.80;;;;;;5091661;28;20034;-56
2022/12/06 00:32:14;;;;;;;104.85;21.58;;;8.80;94.80;;;;;;5091413;28;20051;-56
2022/12/06 00:34:40;;;;;;;89.43;20.35;;;8.70;94.80;;;;;;5126631;28;20043;-56
2022/12/06 00:37:05;;;;;;;94.82;22.75;;;8.70;94.90;;;;;;5091350;28;20088;-56
2022/12/06 00:39:31;;;;;;;85.32;19.08;;;8.70;94.90;;;;;;5126491;28;20040;-56
2022/12/06 00:41:56;;;;;;;89.50;20.60;;;8.70;94.90;;;;;;5126592;28;20445;-56
2022/12/06 00:44:22;;;;;;;93.93;21.52;;;8.70;94.90;;;;;;5091512;28;20474;-56
2022/12/06 00:46:47;;;;;;;96.85;21.48;;;8.70;95.00;;;;;;5107895;28;20165;-56
2022/12/06 00:49:13;;;;;;;78.68;22.33;;;8.70;95.00;;;;;;5126371;28;20157;-57
2022/12/06 00:51:39;;;;;;;91.80;22.15;;;8.70;95.00;;;;;;5091177;28;20032;-57
2022/12/06 00:54:05;;;;;;;78.75;19.80;;;8.60;95.00;;;;;;5108081;28;20020;-56
2022/12/06 00:56:30;;;;;;;78.28;20.75;;;8.70;95.10;;;;;;5126279;28;20027;-56
2022/12/06 00:58:56;;;;;;;76.15;20.30;;;8.60;95.00;;;;;;5126203;28;20036;-56
2022/12/06 01:01:26;;;;;;;81.65;20.08;;;8.60;95.00;;;;;;5125939;28;20373;-56
2022/12/06 01:03:54;;;;;;;80.13;18.88;;;8.60;95.00;;;;;;5107532;28;20034;-56
2022/12/06 01:06:21;;;;;;;98.55;22.42;;;8.60;95.00;;;;;;5107922;28;20023;-56
2022/12/06 01:08:47;;;;;;;77.78;19.80;;;8.60;95.10;;;;;;5107953;28;20045;-56
2022/12/06 01:11:13;;;;;;;68.90;20.00;;;8.60;95.10;;;;;;5126058;28;20123;-56
2022/12/06 01:13:39;;;;;;;69.50;17.95;;;8.60;95.10;;;;;;5106408;28;20024;-56
2022/12/06 01:16:12;;;;;;;76.95;19.42;;;8.60;95.10;;;;;;5107655;28;20055;-57
2022/12/06 01:18:38;;;;;;;72.43;17.75;;;8.60;95.10;;;;;;5107350;28;20027;-56
2022/12/06 01:21:05;;;;;;;76.90;19.10;;;8.60;95.10;;;;;;5107510;28;20035;-57
2022/12/06 01:23:31;;;;;;;58.92;18.25;;;8.50;95.00;;;;;;5090659;28;20019;-57
2022/12/06 01:25:56;;;;;;;68.68;19.45;;;8.50;95.30;;;;;;5107401;28;20112;-56
2022/12/06 01:28:22;;;;;;;60.65;17.67;;;8.50;95.00;;;;;;5125711;28;20036;-56
2022/12/06 01:30:47;;;;;;;53.45;17.88;;;8.50;95.00;;;;;;5107204;28;20110;-56
2022/12/06 01:33:13;;;;;;;53.28;16.48;;;8.50;95.00;;;;;;5107219;28;20019;-56
2022/12/06 01:35:40;;;;;;;59.83;17.20;;;8.50;95.00;;;;;;5107112;28;20169;-56
2022/12/06 01:38:05;;;;;;;69.18;16.92;;;8.50;95.00;;;;;;5107344;28;20027;-56
2022/12/06 01:40:37;;;;;;;50.08;15.65;;;8.50;95.00;;;;;;5107041;28;20027;-56
2022/12/06 01:43:02;;;;;;;60.00;17.55;;;8.50;95.00;;;;;;5090114;28;20023;-56
2022/12/06 01:45:28;;;;;;;55.80;18.17;;;8.50;95.00;;;;;;5125195;28;20012;-56
2022/12/06 01:47:54;;;;;;;47.42;17.15;;;8.50;94.90;;;;;;5107001;28;20119;-57
2022/12/06 01:50:25;;;;;;;49.20;16.35;;;8.50;94.90;;;;;;5090001;28;20024;-57
2022/12/06 01:52:55;;;;;;;47.50;16.33;;;8.50;94.90;;;;;;5090781;28;20026;-56
2022/12/06 01:55:22;;;;;;;51.63;16.42;;;8.40;94.90;;;;;;5091049;28;20024;-57
2022/12/06 01:57:48;;;;;;;42.10;15.48;;;8.40;94.90;;;;;;5090299;28;20028;-57
2022/12/06 02:00:14;;;;;;;54.15;16.45;;;8.50;94.90;;;;;;5106841;28;20024;-56
2022/12/06 02:02:39;;;;;;;51.25;16.88;;;8.40;94.90;;;;;;5106851;28;20042;-57
2022/12/06 02:05:05;;;;;;;54.90;16.23;;;8.40;94.90;;;;;;5090332;28;20024;-56
2022/12/06 02:07:31;;;;;;;60.45;18.02;;;8.40;94.90;;;;;;5090129;28;20035;-56
2022/12/06 02:09:56;;;;;;;52.03;16.48;;;8.50;94.90;;;;;;5089971;28;20027;-56
2022/12/06 02:12:22;;;;;;;53.05;17.23;;;8.40;94.90;;;;;;5106812;28;20028;-56
2022/12/06 02:14:49;;;;;;;52.80;15.40;;;8.40;94.90;;;;;;5106868;28;20035;-56
2022/12/06 02:17:49;;;;;;;48.05;15.20;;;8.40;94.80;;;;;;5106839;28;20034;-56
2022/12/06 02:20:26;;;;;;;44.67;14.55;;;8.40;94.80;;;;;;5089635;28;20031;-57
2022/12/06 02:23:37;;;;;;;45.25;14.50;;;8.40;94.70;;;;;;5090541;28;20054;-56
2022/12/06 02:26:17;;;;;;;38.80;15.18;;;8.40;94.70;;;;;;5087036;28;20036;-57
2022/12/06 02:29:24;;;;;;;42.47;14.88;;;8.40;94.70;;;;;;5129045;28;20020;-56
2022/12/06 02:32:11;;;;;;;39.60;13.77;;;8.40;94.70;;;;;;5096874;28;20453;-56
2022/12/06 02:34:59;;;;;;;33.88;13.38;;;8.40;94.70;;;;;;5096154;28;20050;-56
2022/12/06 02:37:32;;;;;;;40.55;14.80;;;8.40;94.70;;;;;;5096062;28;20501;-56
2022/12/06 02:40:03;;;;;;;42.88;13.95;;;8.40;94.60;;;;;;5093969;28;20035;-56
2022/12/06 02:42:32;;;;;;;34.35;14.32;;;8.30;94.60;;;;;;5110521;28;20445;-56
2022/12/06 02:44:59;;;;;;;38.75;15.55;;;8.30;94.60;;;;;;5110509;28;20031;-56
2022/12/06 02:47:29;;;;;;;39.50;15.82;;;8.30;94.60;;;;;;5093361;28;20047;-56
2022/12/06 02:49:54;;;;;;;28.73;15.50;;;8.30;94.60;;;;;;5093997;28;20072;-57
2022/12/06 02:52:23;;;;;;;44.00;15.77;;;8.30;94.50;;;;;;5093591;28;20087;-57
2022/12/06 02:54:48;;;;;;;33.90;15.05;;;8.30;94.60;;;;;;5093717;28;20031;-56
2022/12/06 02:57:14;;;;;;;40.47;16.15;;;8.30;94.60;;;;;;5093134;28;20081;-57
2022/12/06 02:59:52;;;;;;;36.28;14.35;;;8.30;94.80;;;;;;5110233;28;20095;-56
2022/12/06 03:02:18;;;;;;;42.42;16.17;;;8.30;94.70;;;;;;5110102;28;20042;-56
2022/12/06 03:04:52;;;;;;;37.92;14.10;;;8.30;94.80;;;;;;5110056;28;20055;-56
2022/12/06 03:07:40;;;;;;;40.22;14.77;;;8.30;94.80;;;;;;5128518;28;20051;-56
2022/12/06 03:10:12;;;;;;;27.15;13.68;;;8.30;94.90;;;;;;5095415;28;20012;-56
2022/12/06 03:12:47;;;;;;;40.13;15.13;;;8.30;94.90;;;;;;5109919;28;20044;-56
2022/12/06 03:15:26;;;;;;;30.33;14.43;;;8.30;94.90;;;;;;5128208;28;20027;-56
2022/12/06 03:18:17;;;;;;;37.80;14.43;;;8.30;94.90;;;;;;5093436;28;20035;-56
2022/12/06 03:20:55;;;;;;;35.60;15.20;;;8.30;94.90;;;;;;5112683;28;20038;-56
2022/12/06 03:23:25;;;;;;;28.75;14.43;;;8.30;94.80;;;;;;5093106;28;20024;-57
2022/12/06 03:25:51;;;;;;;36.53;14.68;;;8.30;94.70;;;;;;5093326;28;20190;-56
2022/12/06 03:28:17;;;;;;;29.75;14.35;;;8.30;94.70;;;;;;5092926;28;20104;-56
2022/12/06 03:30:45;;;;;;;32.65;16.58;;;8.30;94.80;;;;;;5092574;28;20130;-56
2022/12/06 03:33:11;;;;;;;36.50;17.42;;;8.30;94.70;;;;;;5092689;28;20039;-56
2022/12/06 03:35:36;;;;;;;36.22;16.33;;;8.30;94.70;;;;;;5092630;28;20036;-56
2022/12/06 03:38:05;;;;;;;31.92;15.02;;;8.30;94.80;;;;;;5091795;28;20030;-56
2022/12/06 03:40:32;;;;;;;32.75;14.90;;;8.30;94.80;;;;;;5092594;28;20103;-56
2022/12/06 03:42:59;;;;;;;28.88;14.07;;;8.30;94.80;;;;;;5109421;28;20087;-56
2022/12/06 03:45:27;;;;;;;37.97;14.43;;;8.30;94.80;;;;;;5109164;28;20016;-56
2022/12/06 03:47:59;;;;;;;30.10;14.35;;;8.30;94.80;;;;;;5092571;28;20031;-56
2022/12/06 03:50:49;;;;;;;24.77;13.80;;;8.30;94.80;;;;;;5092180;28;20015;-56
2022/12/06 03:53:17;;;;;;;27.10;13.27;;;8.30;94.70;;;;;;5109111;28;20365;-56
2022/12/06 03:55:44;;;;;;;27.65;13.93;;;8.30;94.70;;;;;;5092154;28;20032;-56
2022/12/06 03:58:10;;;;;;;32.33;11.80;;;8.30;94.70;;;;;;5109249;28;20031;-56
2022/12/06 04:00:35;;;;;;;33.65;12.23;;;8.30;94.70;;;;;;5109041;28;20031;-56
2022/12/06 04:03:01;;;;;;;26.40;11.85;;;8.30;94.70;;;;;;5127144;28;20028;-56
2022/12/06 04:05:26;;;;;;;24.20;11.93;;;8.20;94.60;;;;;;5127098;28;20083;-56
2022/12/06 04:07:52;;;;;;;30.60;12.35;;;8.30;94.70;;;;;;5108971;28;20114;-56
2022/12/06 04:10:18;;;;;;;25.15;12.27;;;8.20;94.70;;;;;;5127203;28;20069;-56
2022/12/06 04:13:01;;;;;;;24.80;11.77;;;8.20;94.70;;;;;;5108820;28;20066;-56
2022/12/06 04:15:37;;;;;;;30.90;12.45;;;8.20;94.60;;;;;;5127090;28;20081;-56
2022/12/06 04:18:14;;;;;;;25.58;11.63;;;8.20;94.60;;;;;;5127048;28;20027;-56
2022/12/06 04:24:01;;;;;;;27.02;12.27;;;8.20;94.60;;;;;;5052009;28;20041;-56
2022/12/06 04:26:27;;;;;;;24.35;11.05;;;8.20;94.90;;;;;;5083155;28;20038;-56
2022/12/06 04:39:50;;;;;;;16.73;10.70;;;8.20;94.50;;;;;;5110921;28;20111;-56
2022/12/06 04:45:00;;;;;;;22.73;10.48;;;8.20;94.30;;;;;;5110993;28;20031;-56
2022/12/06 04:47:26;;;;;;;22.23;10.68;;;8.20;94.30;;;;;;5107719;28;20473;-56
2022/12/06 04:49:51;;;;;;;20.88;11.55;;;8.20;94.30;;;;;;5090926;28;20058;-56
2022/12/06 04:52:17;;;;;;;25.65;13.35;;;8.20;94.30;;;;;;5108057;28;20106;-56
2022/12/06 04:54:42;;;;;;;22.55;14.00;;;8.20;94.30;;;;;;5107945;28;20028;-56
2022/12/06 04:57:10;;;;;;;22.08;11.82;;;8.10;94.20;;;;;;5107988;28;20047;-56
2022/12/06 04:59:37;;;;;;;26.20;11.23;;;8.10;94.20;;;;;;5091281;28;20051;-56
2022/12/06 05:02:03;;;;;;;18.58;11.30;;;8.10;94.30;;;;;;5107913;28;20142;-56
2022/12/06 05:04:28;;;;;;;21.70;10.48;;;8.10;94.30;;;;;;5090957;28;20119;-56
2022/12/06 05:06:54;;;;;;;15.27;10.82;;;8.10;94.30;;;;;;5107799;28;20028;-56
2022/12/06 05:09:20;;;;;;;19.67;11.15;;;8.10;94.30;;;;;;5107725;28;20019;-56
2022/12/06 05:11:45;;;;;;;18.52;11.48;;;8.10;94.30;;;;;;5126157;28;20028;-56
2022/12/06 05:14:11;;;;;;;23.98;11.55;;;8.10;94.30;;;;;;5107600;28;20054;-56
2022/12/06 05:16:36;;;;;;;17.83;10.13;;;8.10;94.30;;;;;;5126081;28;20027;-56
2022/12/06 05:19:02;;;;;;;21.80;10.48;;;8.10;94.30;;;;;;5107654;28;20035;-56
2022/12/06 05:21:27;;;;;;;17.70;11.15;;;8.10;94.30;;;;;;5107068;28;20063;-56
2022/12/06 05:23:54;;;;;;;18.83;10.80;;;8.10;94.60;;;;;;5125782;28;20024;-56
2022/12/06 05:26:20;;;;;;;17.58;10.68;;;8.10;94.30;;;;;;5107391;28;20058;-56
2022/12/06 05:28:46;;;;;;;19.50;10.18;;;8.10;94.30;;;;;;5107088;28;20027;-56
2022/12/06 05:31:12;;;;;;;16.42;10.10;;;8.10;94.30;;;;;;5125489;28;20043;-56
2022/12/06 05:33:37;;;;;;;18.80;10.60;;;8.10;94.20;;;;;;5107292;28;20102;-56
2022/12/06 05:36:10;;;;;;;17.20;10.05;;;8.10;94.20;;;;;;5090194;28;20044;-56
2022/12/06 05:38:36;;;;;;;16.70;10.10;;;8.10;94.20;;;;;;5107339;28;20027;-56
2022/12/06 05:41:02;;;;;;;14.68;9.18;;;8.10;94.20;;;;;;5125427;28;20046;-56
2022/12/06 05:43:28;;;;;;;16.55;10.43;;;8.10;94.10;;;;;;5107202;28;20027;-56
2022/12/06 05:45:54;;;;;;;16.80;10.10;;;8.00;94.20;;;;;;5107031;28;20035;-56
2022/12/06 05:48:19;;;;;;;15.77;9.52;;;8.00;94.10;;;;;;5090378;28;20059;-56
2022/12/06 05:50:46;;;;;;;16.40;9.57;;;8.10;94.20;;;;;;5090257;28;20047;-56
2022/12/06 05:53:11;;;;;;;16.27;9.57;;;8.10;94.20;;;;;;5090280;28;20035;-56
2022/12/06 05:55:37;;;;;;;15.55;10.10;;;8.10;94.30;;;;;;5089916;28;20132;-56
2022/12/06 05:58:03;;;;;;;11.90;8.65;;;8.00;94.30;;;;;;5107057;28;20046;-56
2022/12/06 06:00:28;;;;;;;15.48;9.02;;;8.00;94.50;;;;;;5106401;28;20027;-56
2022/12/06 06:02:54;;;;;;;14.65;8.95;;;8.00;94.20;;;;;;5106879;28;20046;-56
2022/12/06 06:05:19;;;;;;;13.25;8.63;;;8.00;94.10;;;;;;5106739;28;20027;-56
2022/12/06 06:07:45;;;;;;;14.27;9.70;;;8.00;94.10;;;;;;5089724;28;20087;-56
2022/12/06 06:10:11;;;;;;;14.02;8.80;;;8.00;94.10;;;;;;5106794;28;20031;-56
2022/12/06 06:12:36;;;;;;;19.02;9.32;;;8.00;94.20;;;;;;5106768;28;20024;-57
2022/12/06 06:15:05;;;;;;;14.57;9.05;;;8.00;94.20;;;;;;5115475;28;20027;-56
2022/12/06 06:17:32;;;;;;;15.20;8.38;;;8.00;94.20;;;;;;5086874;28;20028;-56
2022/12/06 06:19:57;;;;;;;13.07;9.32;;;7.90;94.10;;;;;;5086272;28;20024;-56
2022/12/06 06:22:23;;;;;;;12.32;8.50;;;8.00;94.10;;;;;;5086247;28;20028;-56
2022/12/06 06:24:48;;;;;;;13.82;9.00;;;7.90;94.20;;;;;;5104733;28;20071;-56
2022/12/06 06:27:14;;;;;;;13.32;9.02;;;7.90;94.20;;;;;;5104569;28;20032;-56
2022/12/06 06:29:39;;;;;;;13.70;9.13;;;7.90;94.20;;;;;;5086476;28;20095;-56
2022/12/06 06:32:05;;;;;;;16.52;9.18;;;7.90;94.20;;;;;;5069573;28;20184;-56
2022/12/06 06:34:31;;;;;;;12.35;9.18;;;7.90;94.20;;;;;;5086415;28;20115;-56
2022/12/06 06:36:56;;;;;;;14.95;9.13;;;7.90;94.20;;;;;;5086317;28;20100;-56
2022/12/06 06:39:22;;;;;;;13.18;9.45;;;7.90;94.20;;;;;;5104630;28;20438;-56
2022/12/06 06:41:47;;;;;;;16.80;8.68;;;7.90;94.20;;;;;;5069300;28;20040;-56
2022/12/06 06:44:13;;;;;;;12.32;9.38;;;7.90;94.20;;;;;;5086257;28;20350;-56
2022/12/06 06:46:38;;;;;;;11.75;8.50;;;7.90;94.30;;;;;;5104173;28;20071;-56
2022/12/06 06:49:04;;;;;;;12.25;9.57;;;7.80;94.30;;;;;;5086360;28;20024;-56
2022/12/06 06:51:30;;;;;;;14.32;8.45;;;7.90;94.30;;;;;;5086224;28;20050;-56
2022/12/06 06:53:56;;;;;;;12.32;9.55;;;7.90;94.30;;;;;;5086274;28;20024;-56
2022/12/06 06:56:21;;;;;;;13.85;9.02;;;7.80;94.30;;;;;;5104236;28;20038;-56
2022/12/06 06:58:47;;;;;;;12.35;8.43;;;7.90;94.30;;;;;;5104371;28;20028;-57
2022/12/06 07:01:17;;;;;;;11.45;8.60;;;7.90;94.40;;;;;;5085885;28;20442;-56
2022/12/06 07:03:43;;;;;;;13.40;8.77;;;7.90;94.30;;;;;;5086226;28;20040;-56
2022/12/06 07:06:09;;;;;;;15.50;9.70;;;7.90;94.30;;;;;;5086127;28;20113;-56
2022/12/06 07:08:34;;;;;;;16.23;9.32;;;7.90;94.40;;;;;;5069216;28;20036;-56
2022/12/06 07:11:00;;;;;;;11.02;9.13;;;7.80;94.30;;;;;;5069237;28;20043;-56
2022/12/06 07:13:26;;;;;;;13.77;8.65;;;7.80;94.30;;;;;;5072511;28;20055;-57
2022/12/06 07:15:52;;;;;;;16.90;9.23;;;7.80;94.30;;;;;;5089608;28;20051;-56
2022/12/06 07:18:18;;;;;;;11.93;9.35;;;7.90;94.30;;;;;;5089534;28;20032;-56
2022/12/06 07:20:44;;;;;;;14.43;9.50;;;7.80;94.30;;;;;;5072609;28;20114;-56
2022/12/06 07:23:09;;;;;;;12.10;8.95;;;7.80;94.30;;;;;;5072585;28;20036;-57
2022/12/06 07:25:35;;;;;;;14.35;9.25;;;7.80;94.30;;;;;;5072603;28;20035;-56
2022/12/06 07:28:00;;;;;;;13.00;8.88;;;7.90;94.30;;;;;;5107554;28;20039;-56
2022/12/06 07:30:26;;;;;;;16.52;9.80;;;7.80;94.30;;;;;;5089252;28;20079;-56
2022/12/06 07:32:52;;;;;;;19.77;10.95;;;7.80;94.30;;;;;;5089306;28;20048;-56
2022/12/06 07:35:18;;;;;;;24.38;10.45;;;7.90;94.30;;;;;;5107010;28;20102;-56
2022/12/06 07:37:44;;;;;;;18.88;9.38;;;7.90;94.30;;;;;;5088953;28;20040;-56
2022/12/06 07:40:11;;;;;;;22.13;10.10;;;7.90;94.30;;;;;;5110224;28;20024;-56
2022/12/06 07:45:20;;;;;;;26.42;10.90;;;7.90;94.30;;;;;;5127537;28;20034;-56
2022/12/06 07:47:46;;;;;;;32.10;10.15;;;7.90;94.30;;;;;;5109278;28;20051;-56
2022/12/06 07:50:17;;;;;;;35.05;11.57;;;7.90;94.30;;;;;;5108768;28;20020;-57
2022/12/06 07:52:42;;;;;;;29.05;10.80;;;7.90;94.30;;;;;;5109093;28;20106;-56
2022/12/06 07:55:09;;;;;;;20.60;10.63;;;7.90;94.30;;;;;;5091965;28;20028;-56
2022/12/06 07:57:34;;;;;;;32.25;11.07;;;7.90;94.20;;;;;;5108555;28;20039;-56
2022/12/06 08:00:00;;;;;;;20.40;10.05;;;7.90;94.20;;;;;;5108979;28;20020;-56
2022/12/06 08:02:26;;;;;;;17.90;10.20;;;7.90;94.20;;;;;;5127205;28;20058;-56
2022/12/06 08:04:52;;;;;;;20.60;9.20;;;7.80;94.20;;;;;;5109129;28;20024;-56
2022/12/06 08:07:18;;;;;;;21.23;10.70;;;7.90;94.20;;;;;;5127344;28;20028;-56
2022/12/06 08:09:43;;;;;;;26.83;10.43;;;7.90;94.20;;;;;;5092138;28;20470;-56
2022/12/06 08:12:09;;;;;;;23.90;10.55;;;7.80;94.20;;;;;;5091927;28;20065;-56
2022/12/06 08:14:35;;;;;;;35.30;10.60;;;7.80;94.10;;;;;;5127050;28;20449;-56
2022/12/06 08:17:01;;;;;;;35.67;11.65;;;7.90;94.20;;;;;;5108633;28;20441;-56
2022/12/06 08:19:26;;;;;;;35.35;10.77;;;7.90;94.20;;;;;;5091466;28;20027;-56
2022/12/06 08:21:52;;;;;;;39.42;11.73;;;7.90;94.10;;;;;;5091271;28;20476;-56
2022/12/06 08:24:17;;;;;;;43.78;11.18;;;7.90;94.10;;;;;;5108175;28;20026;-56
2022/12/06 08:26:43;;;;;;;32.42;10.82;;;7.90;94.10;;;;;;5126669;28;20114;-57
2022/12/06 08:29:09;;;;;;;54.35;11.93;;;8.00;94.10;;;;;;5091537;28;20019;-56
2022/12/06 08:31:34;;;;;;;44.72;12.05;;;7.90;94.10;;;;;;5108405;28;20039;-56
2022/12/06 08:34:01;;;;;;;46.28;11.63;;;7.90;94.10;;;;;;5109213;28;20016;-56
2022/12/06 08:36:27;;;;;;;29.92;10.30;;;7.90;94.10;;;;;;5108638;28;20059;-56
2022/12/06 08:38:53;;;;;;;41.30;11.70;;;7.90;94.10;;;;;;5108151;28;20030;-56
2022/12/06 08:44:03;;;;;;;33.95;10.23;;;7.90;93.90;;;;;;5126324;28;20051;-56
2022/12/06 08:46:28;;;;;;;36.13;11.07;;;7.90;94.00;;;;;;5126068;28;20035;-57
2022/12/06 08:48:54;;;;;;;27.50;9.82;;;7.90;93.90;;;;;;5073933;28;20035;-56
2022/12/06 08:51:20;;;;;;;35.25;11.10;;;7.90;93.90;;;;;;5107777;28;20114;-56
2022/12/06 08:53:45;;;;;;;41.17;10.77;;;7.90;93.90;;;;;;5090951;28;20051;-56
2022/12/06 08:56:11;;;;;;;30.92;10.60;;;7.90;93.90;;;;;;5090725;28;20028;-56
2022/12/06 08:58:36;;;;;;;40.83;10.55;;;8.00;93.90;;;;;;5107716;28;20105;-57
2022/12/06 09:01:18;;;;;;;39.97;10.40;;;8.00;93.90;;;;;;5090446;28;20028;-56
2022/12/06 09:03:44;;;;;;;49.05;12.68;;;8.00;93.90;;;;;;5091769;28;20030;-57
2022/12/06 09:06:10;;;;;;;44.08;10.32;;;8.00;93.80;;;;;;5125789;28;20028;-56
2022/12/06 09:08:36;;;;;;;40.83;11.93;;;8.00;93.80;;;;;;5107349;28;20016;-56
2022/12/06 09:11:01;;;;;;;45.80;11.25;;;8.00;93.90;;;;;;5107277;28;20067;-56
2022/12/06 09:13:27;;;;;;;52.00;12.27;;;8.10;93.90;;;;;;5090451;28;20027;-56
2022/12/06 09:15:52;;;;;;;44.63;11.00;;;8.00;94.00;;;;;;5107137;28;20031;-56
2022/12/06 09:18:18;;;;;;;42.47;11.07;;;8.00;93.90;;;;;;5125668;28;20027;-56
2022/12/06 09:20:44;;;;;;;43.63;11.13;;;8.00;93.90;;;;;;5107358;28;20035;-56
2022/12/06 09:23:09;;;;;;;46.72;12.10;;;8.00;93.90;;;;;;5107586;28;20027;-57
2022/12/06 09:25:35;;;;;;;44.08;11.23;;;8.00;93.90;;;;;;5106341;28;20028;-57
2022/12/06 09:28:00;;;;;;;37.22;10.95;;;8.10;93.90;;;;;;5114166;28;20457;-56
2022/12/06 09:30:26;;;;;;;42.53;11.30;;;8.10;93.90;;;;;;5089195;28;20137;-56
2022/12/06 09:32:52;;;;;;;57.08;12.20;;;8.10;93.90;;;;;;5125212;28;20020;-56
2022/12/06 09:35:18;;;;;;;51.90;11.93;;;8.10;93.90;;;;;;5105910;28;20049;-56
2022/12/06 09:37:43;;;;;;;59.13;12.57;;;8.10;94.00;;;;;;5107050;28;20032;-56
2022/12/06 09:40:13;;;;;;;60.90;13.55;;;8.10;94.00;;;;;;5106970;28;20050;-56
2022/12/06 09:43:09;;;;;;;48.78;12.05;;;8.10;94.00;;;;;;5073472;28;20080;-57
2022/12/06 09:45:50;;;;;;;68.60;12.63;;;8.10;94.00;;;;;;5109326;28;20095;-57
2022/12/06 09:48:33;;;;;;;64.40;12.77;;;8.10;94.00;;;;;;5124712;28;20042;-56
2022/12/06 09:51:56;;;;;;;97.03;15.63;;;8.10;94.00;;;;;;5090624;28;20061;-56
2022/12/06 09:54:24;;;;;;;64.63;12.32;;;8.10;94.10;;;;;;5018633;28;20026;-56
2022/12/06 09:56:56;;;;;;;61.15;13.10;;;8.10;94.10;;;;;;5022044;28;20145;-56
2022/12/06 09:59:51;;;;;;;70.80;12.73;;;8.10;94.10;;;;;;5062273;28;20035;-56
2022/12/06 10:02:40;;;;;;;60.88;12.98;;;8.10;94.10;;;;;;5109579;28;20123;-56
2022/12/06 10:05:14;;;;;;;64.00;13.15;;;8.10;94.40;;;;;;5109814;28;20441;-56
2022/12/06 10:07:46;;;;;;;83.70;13.43;;;8.10;94.10;;;;;;5125207;28;20080;-56
2022/12/06 10:10:21;;;;;;;75.47;14.48;;;8.10;94.10;;;;;;5106423;28;20027;-56
2022/12/06 10:12:53;;;;;;;65.95;12.43;;;8.10;94.10;;;;;;5106663;28;20069;-57
2022/12/06 10:15:26;;;;;;;68.22;14.60;;;8.10;94.10;;;;;;5106541;28;20050;-56
2022/12/06 10:18:20;;;;;;;77.47;14.20;;;8.10;94.10;;;;;;5073553;28;20460;-56
2022/12/06 10:20:50;;;;;;;79.97;14.48;;;8.10;94.10;;;;;;5125005;28;20032;-56
2022/12/06 10:23:28;;;;;;;77.95;13.70;;;8.10;94.10;;;;;;5087596;28;20114;-56
2022/12/06 10:26:18;;;;;;;109.25;16.58;;;8.10;94.10;;;;;;5106375;28;20028;-56
2022/12/06 10:28:49;;;;;;;114.45;15.98;;;8.10;94.10;;;;;;5124662;28;20035;-56
2022/12/06 10:31:46;;;;;;;77.03;14.10;;;8.10;94.10;;;;;;5106197;28;20034;-56
2022/12/06 10:34:19;;;;;;;102.82;15.38;;;8.10;94.10;;;;;;5109162;28;20084;-56
2022/12/06 10:36:50;;;;;;;91.10;15.18;;;8.10;94.10;;;;;;5091216;28;20034;-56
2022/12/06 10:39:28;;;;;;;110.78;15.85;;;8.10;94.10;;;;;;5106610;28;20477;-56
2022/12/06 10:42:19;;;;;;;70.03;14.30;;;8.10;94.10;;;;;;5089224;28;20043;-56
2022/12/06 10:45:01;;;;;;;93.63;13.20;;;8.10;94.00;;;;;;5089321;28;20103;-56
2022/12/06 10:47:36;;;;;;;71.97;12.45;;;8.10;94.00;;;;;;5090507;28;20039;-56
2022/12/06 10:50:20;;;;;;;77.38;12.20;;;8.10;94.00;;;;;;5073527;28;20081;-56
2022/12/06 10:52:47;;;;;;;52.30;11.15;;;8.00;93.90;;;;;;5067465;28;20258;-56
2022/12/06 10:55:32;;;;;;;56.63;10.88;;;8.00;93.80;;;;;;5098220;28;20030;-56
2022/12/06 10:58:26;;;;;;;66.72;12.38;;;8.00;93.70;;;;;;5094179;28;20426;-57
2022/12/06 11:01:09;;;;;;;76.20;13.55;;;8.00;93.70;;;;;;5091344;28;20401;-57
2022/12/06 11:04:00;;;;;;;94.80;15.07;;;8.00;93.80;;;;;;5075402;28;20059;-56
2022/12/06 11:06:44;;;;;;;111.15;15.52;;;8.00;93.90;;;;;;5103263;28;20032;-56
2022/12/06 11:09:37;;;;;;;71.13;12.50;;;8.00;93.90;;;;;;5107700;28;20026;-56
2022/12/06 11:12:13;;;;;;;80.35;12.38;;;8.00;93.90;;;;;;5108934;28;20043;-56
2022/12/06 11:14:41;;;;;;;62.33;12.00;;;8.00;93.80;;;;;;5078078;28;20031;-56
2022/12/06 11:17:21;;;;;;;69.85;10.95;;;8.00;93.70;;;;;;5092355;28;20039;-56
2022/12/06 11:19:53;;;;;;;47.17;9.98;;;7.90;93.60;;;;;;5082309;28;20035;-56
2022/12/06 11:22:40;;;;;;;56.80;11.38;;;7.90;93.60;;;;;;5105327;28;20050;-56
2022/12/06 11:25:08;;;;;;;54.42;10.52;;;7.90;93.60;;;;;;5109122;28;20023;-56
2022/12/06 11:27:45;;;;;;;81.45;12.73;;;7.90;93.70;;;;;;5127032;28;20032;-56
2022/12/06 11:30:15;;;;;;;69.25;12.75;;;7.90;93.80;;;;;;5109341;28;20024;-56
2022/12/06 11:32:41;;;;;;;60.70;12.13;;;7.90;93.90;;;;;;5125198;28;20027;-57
2022/12/06 11:35:12;;;;;;;84.05;13.55;;;7.90;94.00;;;;;;5090876;28;20034;-56
2022/12/06 11:37:37;;;;;;;59.65;11.52;;;7.90;93.90;;;;;;5108693;28;20028;-56
2022/12/06 11:40:14;;;;;;;64.65;10.65;;;7.90;93.90;;;;;;5066798;28;20034;-56
2022/12/06 11:42:39;;;;;;;78.80;12.48;;;7.90;93.80;;;;;;5115164;28;20489;-57
2022/12/06 11:45:32;;;;;;;45.25;11.52;;;7.90;93.80;;;;;;5099904;28;20046;-56
2022/12/06 11:47:58;;;;;;;98.70;13.43;;;7.90;93.80;;;;;;5086283;28;20044;-56
2022/12/06 11:50:24;;;;;;;73.60;14.45;;;7.90;93.80;;;;;;5084579;28;20084;-56
2022/12/06 11:53:01;;;;;;;80.07;15.07;;;7.90;93.70;;;;;;5089189;28;20024;-56
2022/12/06 11:55:33;;;;;;;75.65;13.00;;;7.90;93.80;;;;;;5099193;28;20043;-56
2022/12/06 11:58:07;;;;;;;89.68;13.38;;;7.90;93.90;;;;;;5122985;28;20035;-57
2022/12/06 12:00:33;;;;;;;98.63;14.63;;;7.90;94.00;;;;;;5123281;28;20016;-56
2022/12/06 12:02:58;;;;;;;63.50;12.23;;;7.90;94.00;;;;;;5100375;28;20043;-57
2022/12/06 12:05:37;;;;;;;82.45;12.82;;;7.90;93.90;;;;;;5105178;28;20016;-56
2022/12/06 12:08:16;;;;;;;87.60;14.48;;;7.90;93.90;;;;;;5092681;28;20035;-56
2022/12/06 12:10:42;;;;;;;100.97;13.57;;;7.90;93.80;;;;;;5087948;28;20032;-57
2022/12/06 12:16:13;;;;;;;55.35;11.63;;;7.90;93.90;;;;;;5116313;28;20424;-57
2022/12/06 12:18:42;;;;;;;65.28;13.52;;;7.90;94.00;;;;;;5098135;28;20019;-56
2022/12/06 12:21:08;;;;;;;66.25;12.90;;;7.90;93.70;;;;;;5100128;28;20036;-56
2022/12/06 12:23:35;;;;;;;61.08;12.63;;;7.80;93.70;;;;;;5101168;28;20220;-55
2022/12/06 12:26:14;;;;;;;64.53;12.13;;;7.80;93.80;;;;;;5104180;28;20422;-56
2022/12/06 12:28:41;;;;;;;63.38;11.70;;;7.80;93.90;;;;;;5089972;28;20060;-56
2022/12/06 12:31:18;;;;;;;59.25;11.80;;;7.80;93.80;;;;;;5098948;28;20042;-56
2022/12/06 12:33:44;;;;;;;49.38;11.73;;;7.80;93.80;;;;;;5103672;28;20035;-56
2022/12/06 12:36:23;;;;;;;53.28;11.80;;;7.80;93.80;;;;;;5107097;28;20138;-56
2022/12/06 12:38:51;;;;;;;59.53;10.85;;;7.80;93.80;;;;;;5089522;28;20531;-56
2022/12/06 12:41:38;;;;;;;60.05;11.73;;;7.70;93.90;;;;;;5104395;28;20055;-56
2022/12/06 12:44:25;;;;;;;49.53;10.65;;;7.80;94.00;;;;;;5105236;28;20152;-56
2022/12/06 12:47:00;;;;;;;50.65;11.13;;;7.80;94.10;;;;;;5122990;28;20142;-56
2022/12/06 12:49:26;;;;;;;;;;;7.80;94.00;;;;;;5105999;28;20084;-56
2022/12/06 12:51:52;;;;;;;44.92;10.05;;;7.80;94.00;;;;;;5123753;28;20032;-56
2022/12/06 12:54:29;;;;;;;70.18;13.05;;;7.80;93.90;;;;;;5103182;28;20023;-56
2022/12/06 12:56:55;;;;;;;57.55;11.05;;;7.90;93.90;;;;;;5105275;28;20049;-56
2022/12/06 12:59:23;;;;;;;51.88;11.23;;;7.80;94.00;;;;;;5101896;28;20020;-56
2022/12/06 13:01:57;;;;;;;62.97;10.95;;;7.80;93.80;;;;;;5093556;28;20031;-56
2022/12/06 13:04:30;;;;;;;49.90;10.73;;;7.80;93.80;;;;;;5090200;28;20027;-56
2022/12/06 13:07:06;;;;;;;45.80;9.88;;;7.80;93.80;;;;;;5106027;28;20290;-56
2022/12/06 13:09:53;;;;;;;48.63;10.43;;;7.80;93.80;;;;;;5106762;28;20129;-56
2022/12/06 13:12:32;;;;;;;30.27;9.52;;;7.80;93.80;;;;;;5104127;28;20043;-56
2022/12/06 13:15:04;;;;;;;48.25;9.75;;;7.80;93.70;;;;;;5075573;28;20032;-56
2022/12/06 13:17:31;;;;;;;33.65;9.65;;;7.70;93.60;;;;;;5107139;28;20035;-56